Catàleg de serveis del Meteocat

Dades de l'estació automàtica Sant Pau de Segúries

?
?
Resum diari 22:30 TU
Dades diàries de l'estació meteorològica
Temperatura mitjana 4.8 °C
Temperatura màxima 6.4 °C 11:16 TU
Temperatura mínima 3.1 °C 7:36 TU
Humitat relativa mitjana 98%
Precipitació acumulada 6.5 mm
Ratxa màxima del vent (10 m) 31.3 km/h - 234º 19:28 TU
Pressió atmosfèrica mitjana 1001.6 hPa

El tram horari està expressat en Temps Universal (TU). Cal sumar una hora en horari d'hivern i dues en horari d'estiu per passar a l'hora oficial.

Sant Pau de Segúries

Metadades estació meteorol´gica
Municipi Sant Pau de Segúries
Comarca Ripollès
Altitud 852 m
Data alta 24.11.1995
Estat actual Operativa
Dades de període
Període
TU
TM
°C
TX
°C
TN
°C
HRM
%
PPT
mm
VVM (10 m)
km/h
DVM (10 m)
graus
VVX (10 m)
km/h
PM
hPa
00:00 - 00:30 4.2 4.3 4.1 99 0.2 2.5 249 9.0 1001.1
00:30 - 01:00 4.1 4.2 4.0 99 0.0 2.9 234 9.0 1000.9
01:00 - 01:30 4.1 4.1 4.0 99 0.0 3.2 242 8.6 1000.8
01:30 - 02:00 4.2 4.2 4.1 99 0.0 2.9 250 7.2 1000.6
02:00 - 02:30 4.2 4.2 4.1 100 0.0 1.8 227 7.2 1000.5
02:30 - 03:00 4.2 4.2 4.1 99 0.0 2.2 196 5.8 1000.4
03:00 - 03:30 4.2 4.2 4.1 99 0.0 2.5 194 6.1 1000.4
03:30 - 04:00 4.2 4.2 4.1 98 0.0 2.5 184 5.4 1000.4
04:00 - 04:30 4.1 4.1 4.0 98 0.0 2.2 184 5.8 1000.6
04:30 - 05:00 4.0 4.1 3.9 98 0.0 2.9 193 7.6 1000.7
05:00 - 05:30 3.9 4.0 3.7 98 0.0 2.2 257 6.5 1000.9
05:30 - 06:00 3.7 3.7 3.6 99 0.0 1.4 300 5.8 1000.9
06:00 - 06:30 3.6 3.6 3.4 99 0.0 2.5 274 7.6 1001.1
06:30 - 07:00 3.3 3.4 3.2 100 0.0 4.3 255 11.9 1001.5
07:00 - 07:30 3.2 3.3 3.1 100 0.0 2.2 291 9.0 1001.8
07:30 - 08:00 3.1 3.2 3.1 99 0.0 1.4 281 5.4 1002.0
08:00 - 08:30 3.3 3.6 3.2 99 0.0 3.2 201 8.3 1002.2
08:30 - 09:00 4.0 4.4 3.6 96 0.0 2.9 230 7.9 1002.1
09:00 - 09:30 4.4 4.7 4.2 95 0.0 2.2 241 7.2 1002.1
09:30 - 10:00 4.9 5.7 4.7 93 0.0 3.6 214 8.3 1002.2
10:00 - 10:30 5.7 6.0 5.5 92 0.0 4.0 231 13.3 1002.0
10:30 - 11:00 6.2 6.3 5.9 93 0.0 7.9 248 15.5 1001.8
11:00 - 11:30 6.3 6.4 6.1 93 0.2 5.8 249 15.1 1001.7
11:30 - 12:00 6.0 6.2 5.7 93 0.0 5.4 243 15.8 1001.5
12:00 - 12:30 5.5 5.7 5.3 93 0.2 6.1 234 16.2 1001.6
12:30 - 13:00 5.5 5.6 5.3 95 0.2 5.4 246 15.5 1001.5
13:00 - 13:30 5.5 5.6 5.4 97 0.2 4.3 233 13.0 1001.4
13:30 - 14:00 5.4 5.6 5.3 98 0.5 4.0 254 11.5 1001.4
14:00 - 14:30 5.5 5.6 5.4 98 0.2 2.9 230 6.8 1001.1
14:30 - 15:00 5.5 5.6 5.4 99 0.4 1.8 224 5.0 1001.1
15:00 - 15:30 5.6 5.6 5.5 99 0.1 2.2 187 5.0 1001.2
15:30 - 16:00 5.6 5.6 5.6 99 0.2 3.2 195 7.2 1001.3
16:00 - 16:30 5.7 5.8 5.6 99 0.0 2.5 205 6.1 1001.4
16:30 - 17:00 5.8 5.8 5.8 99 0.0 3.2 236 7.9 1001.5
17:00 - 17:30 5.9 5.9 5.8 99 0.0 4.0 230 10.8 1001.3
17:30 - 18:00 6.0 6.0 5.9 99 0.0 3.2 247 10.4 1001.6
18:00 - 18:30 6.0 6.1 6.0 99 0.0 3.2 229 15.1 1001.8
18:30 - 19:00 6.2 6.3 6.1 99 0.0 4.0 218 12.2 1002.1
19:00 - 19:30 6.1 6.3 5.6 99 2.8 8.3 232 31.3 1002.8
19:30 - 20:00 5.3 5.5 5.2 99 1.3 6.5 243 27.7 1002.9
20:00 - 20:30 5.0 5.2 4.9 100 0.0 6.1 227 17.6 1002.7
20:30 - 21:00 4.9 4.9 4.9 100 0.0 5.8 226 19.8 1002.7
21:00 - 21:30 4.8 4.9 4.7 100 0.0 5.0 233 17.3 1003.2
21:30 - 22:00 4.6 4.7 4.6 100 0.0 3.6 239 21.2 1003.1
22:00 - 22:30 4.6 4.7 4.5 100 0.0 5.8 223 17.3 1003.1
22:30 - 23:00 4.0 4.5 3.5 100 0.0 3.2 156 9.7 1003.9

Les dades en taronja només han passat un control de qualitat automàtic. Resta pendent la seva validació definitiva.